Time;durP1;ratioP1;P1;durP2;ratioP2;P2;SDS_P1;SDS_P2;PMS_P1;PMS_P2;Temp;Humidity;BMP_temperature;BMP_pressure;BME280_temperature;BME280_humidity;BME280_pressure;Samples;Min_cycle;Max_cycle;Signal;HPM_P1;HPM_P2
2022/12/18 00:00:47;;;;;;;25.70;15.05;;;-2.60;65.00;;;;;;5071949;28;20467;-73
2022/12/18 00:03:14;;;;;;;25.48;14.00;;;-2.60;66.30;;;;;;5072299;28;20429;-74
2022/12/18 00:05:50;;;;;;;22.73;14.18;;;-2.60;64.80;;;;;;5074346;28;20860;-75
2022/12/18 00:08:17;;;;;;;25.25;13.93;;;-2.70;64.90;;;;;;5072154;28;20396;-76
2022/12/18 00:10:43;;;;;;;24.55;13.60;;;-2.60;64.60;;;;;;5071231;28;20857;-74
2022/12/18 00:13:09;;;;;;;22.10;13.88;;;-2.60;62.70;;;;;;5071430;28;20450;-75
2022/12/18 00:15:35;;;;;;;22.45;14.25;;;-2.70;64.10;;;;;;5071284;28;20469;-74
2022/12/18 00:18:01;;;;;;;20.67;13.20;;;-2.60;65.40;;;;;;5072509;28;20403;-75
2022/12/18 00:20:26;;;;;;;21.20;13.53;;;-2.60;63.00;;;;;;5072545;28;20375;-75
2022/12/18 00:22:53;;;;;;;21.15;13.55;;;-2.70;63.70;;;;;;5074008;28;20384;-73
2022/12/18 00:25:18;;;;;;;25.67;14.00;;;-2.70;62.00;;;;;;5071696;28;20463;-74
2022/12/18 00:27:44;;;;;;;19.38;12.75;;;-2.70;62.80;;;;;;5071724;28;20490;-73
2022/12/18 00:30:10;;;;;;;22.20;13.33;;;-2.60;60.00;;;;;;5070646;28;20755;-75
2022/12/18 00:32:36;;;;;;;21.77;12.70;;;-2.70;60.40;;;;;;5071039;28;20472;-74
2022/12/18 00:35:01;;;;;;;22.80;12.70;;;-2.60;62.00;;;;;;5073348;28;20375;-74
2022/12/18 00:37:27;;;;;;;21.02;13.38;;;-2.60;61.20;;;;;;5072039;28;20386;-74
2022/12/18 00:39:52;;;;;;;21.73;11.87;;;-2.50;60.70;;;;;;5073388;28;20380;-74
2022/12/18 00:45:02;;;;;;;25.50;13.70;;;-2.50;58.40;;;;;;5072548;28;20433;-73
2022/12/18 00:47:28;;;;;;;19.98;12.15;;;-2.60;60.70;;;;;;5077059;28;20380;-74
2022/12/18 00:49:53;;;;;;;19.83;12.15;;;-2.50;60.70;;;;;;5087217;28;20371;-74
2022/12/18 00:52:19;;;;;;;23.93;12.33;;;-2.60;61.60;;;;;;5085002;28;20494;-75
2022/12/18 00:54:45;;;;;;;20.40;13.10;;;-2.60;59.60;;;;;;5076771;28;20438;-75
2022/12/18 00:57:10;;;;;;;18.67;11.82;;;-2.60;59.40;;;;;;5090560;28;20384;-73
2022/12/18 00:59:36;;;;;;;21.90;12.43;;;-2.60;61.60;;;;;;5073960;28;20388;-73
2022/12/18 01:02:01;;;;;;;21.03;12.30;;;-2.60;60.90;;;;;;5069530;28;20948;-74
2022/12/18 01:04:27;;;;;;;21.17;13.27;;;-2.60;61.00;;;;;;5072407;28;20423;-73
2022/12/18 01:06:52;;;;;;;22.75;13.35;;;-2.60;61.20;;;;;;5073451;28;20383;-73
2022/12/18 01:09:18;;;;;;;20.98;13.48;;;-2.70;63.10;;;;;;5073334;28;20388;-74
2022/12/18 01:11:43;;;;;;;22.20;14.53;;;-2.80;64.00;;;;;;5072778;28;20404;-74
2022/12/18 01:14:09;;;;;;;23.17;13.53;;;-2.80;66.40;;;;;;5073604;28;20744;-75
2022/12/18 01:16:35;;;;;;;24.52;14.10;;;-2.70;66.30;;;;;;5073365;28;20379;-75
2022/12/18 01:19:00;;;;;;;26.83;14.40;;;-2.80;64.90;;;;;;5073221;28;20433;-74
2022/12/18 01:21:26;;;;;;;22.70;13.40;;;-2.90;65.60;;;;;;5072751;28;20389;-74
2022/12/18 01:23:54;;;;;;;22.25;14.00;;;-2.90;65.90;;;;;;5073465;28;20937;-74
2022/12/18 01:26:20;;;;;;;22.85;14.10;;;-2.80;64.30;;;;;;5073657;28;20887;-74
2022/12/18 01:28:45;;;;;;;22.73;13.65;;;-2.90;65.50;;;;;;5073232;28;20415;-74
2022/12/18 01:31:21;;;;;;;22.43;13.13;;;-2.80;65.00;;;;;;5072808;28;20419;-74
2022/12/18 01:33:47;;;;;;;21.63;12.10;;;-2.80;62.30;;;;;;5073188;28;20386;-74
2022/12/18 01:36:28;;;;;;;21.00;12.70;;;-2.80;60.40;;;;;;5073237;28;20486;-74
2022/12/18 01:38:55;;;;;;;21.50;12.52;;;-2.80;62.00;;;;;;5072877;28;20380;-75
2022/12/18 01:41:24;;;;;;;22.05;12.23;;;-2.80;63.40;;;;;;5072138;28;20388;-74
2022/12/18 01:43:57;;;;;;;22.67;12.80;;;-2.80;61.90;;;;;;5072753;28;20887;-74
2022/12/18 01:46:24;;;;;;;21.88;12.60;;;-2.80;62.10;;;;;;5072506;28;20412;-74
2022/12/18 01:48:59;;;;;;;20.83;12.93;;;-2.80;63.90;;;;;;5072573;28;20388;-74
2022/12/18 01:51:26;;;;;;;23.45;12.65;;;-2.80;63.50;;;;;;5072038;28;20884;-74
2022/12/18 01:53:52;;;;;;;21.70;11.77;;;-2.90;63.00;;;;;;5072933;28;20479;-76
2022/12/18 01:56:20;;;;;;;21.77;12.90;;;-2.90;62.10;;;;;;5072788;28;20474;-73
2022/12/18 01:58:55;;;;;;;20.98;11.60;;;-2.90;61.70;;;;;;5072797;28;20422;-74
2022/12/18 02:01:23;;;;;;;20.43;11.87;;;-2.90;60.90;;;;;;5072198;28;20714;-75
2022/12/18 02:03:50;;;;;;;22.65;12.45;;;-2.90;60.20;;;;;;5072020;28;20388;-74
2022/12/18 02:06:38;;;;;;;24.55;12.57;;;-2.90;60.30;;;;;;5072405;28;20922;-74
2022/12/18 02:09:14;;;;;;;20.60;12.35;;;-2.90;60.60;;;;;;5072418;28;20845;-74
2022/12/18 02:11:52;;;;;;;20.58;12.30;;;-2.90;60.60;;;;;;5071705;28;20408;-75
2022/12/18 02:14:33;;;;;;;19.35;12.10;;;-3.00;60.70;;;;;;5071853;28;20441;-75
2022/12/18 02:17:07;;;;;;;19.63;12.50;;;-2.90;61.90;;;;;;5071602;28;20411;-74
2022/12/18 02:19:54;;;;;;;22.70;12.98;;;-2.90;61.50;;;;;;5070847;28;20819;-74
2022/12/18 02:22:34;;;;;;;20.95;12.27;;;-2.80;61.70;;;;;;5071602;28;20388;-74
2022/12/18 02:25:26;;;;;;;16.90;11.10;;;-2.90;61.30;;;;;;5079682;28;20442;-74
2022/12/18 02:27:54;;;;;;;21.65;12.88;;;-2.90;59.40;;;;;;5091038;28;20388;-74
2022/12/18 02:30:20;;;;;;;24.15;13.40;;;-2.90;60.50;;;;;;5095332;28;20367;-74
2022/12/18 02:32:51;;;;;;;21.17;12.50;;;-3.00;61.10;;;;;;5094892;28;20490;-74
2022/12/18 02:35:24;;;;;;;20.85;12.63;;;-2.90;61.40;;;;;;5094988;28;20461;-74
2022/12/18 02:37:54;;;;;;;19.02;11.55;;;-3.00;61.60;;;;;;5095008;28;20412;-74
2022/12/18 02:40:21;;;;;;;20.75;12.40;;;-2.90;60.70;;;;;;5092655;28;20410;-74
2022/12/18 02:42:47;;;;;;;19.42;11.93;;;-2.80;60.00;;;;;;5072417;28;20466;-75
2022/12/18 02:47:44;;;;;;;21.45;11.60;;;-2.90;60.40;;;;;;5069543;28;20420;-75
2022/12/18 02:50:34;;;;;;;18.10;11.52;;;-2.90;60.20;;;;;;5071952;28;20384;-74
2022/12/18 02:53:23;;;;;;;20.30;12.32;;;-2.90;60.10;;;;;;5053565;28;20411;-75
2022/12/18 02:56:03;;;;;;;17.58;11.48;;;-2.80;60.60;;;;;;5071973;28;20883;-75
2022/12/18 02:58:52;;;;;;;19.88;11.43;;;-2.90;60.40;;;;;;5071917;28;20460;-74
2022/12/18 03:01:42;;;;;;;18.05;11.85;;;-2.80;60.90;;;;;;5053424;28;20396;-74
2022/12/18 03:04:16;;;;;;;18.20;11.23;;;-2.70;60.90;;;;;;5072197;28;20387;-74
2022/12/18 03:06:46;;;;;;;16.73;10.93;;;-2.70;60.00;;;;;;5071776;28;20390;-74
2022/12/18 03:09:17;;;;;;;18.60;11.70;;;-2.60;59.40;;;;;;5071943;28;20395;-74
2022/12/18 03:14:37;;;;;;;18.05;10.90;;;-2.60;58.80;;;;;;5071835;28;20387;-74
2022/12/18 03:17:07;;;;;;;17.70;11.63;;;-2.60;58.00;;;;;;5071969;28;20387;-75
2022/12/18 03:19:34;;;;;;;17.80;11.00;;;-2.70;58.70;;;;;;5054268;28;20384;-75
2022/12/18 03:22:02;;;;;;;19.70;11.60;;;-2.60;58.30;;;;;;5073976;28;20380;-74
2022/12/18 03:24:31;;;;;;;17.65;11.25;;;-2.70;58.60;;;;;;5056918;28;20391;-74
2022/12/18 03:27:11;;;;;;;18.98;11.32;;;-2.70;59.60;;;;;;5074602;28;20384;-74
2022/12/18 03:29:42;;;;;;;19.23;11.48;;;-2.70;60.10;;;;;;5071822;28;20879;-75
2022/12/18 03:32:15;;;;;;;17.10;11.00;;;-2.70;60.30;;;;;;5071095;28;20938;-75
2022/12/18 03:34:43;;;;;;;16.97;10.80;;;-2.70;61.80;;;;;;5071708;28;20407;-75
2022/12/18 03:37:09;;;;;;;15.45;10.90;;;-2.60;60.20;;;;;;5053303;28;20391;-75
2022/12/18 03:39:37;;;;;;;21.20;12.27;;;-2.70;58.90;;;;;;5071322;28;20380;-75
2022/12/18 03:42:14;;;;;;;17.63;11.60;;;-2.70;60.10;;;;;;5070451;28;20399;-74
2022/12/18 03:44:54;;;;;;;18.25;11.23;;;-2.70;60.00;;;;;;5071270;28;20399;-75
2022/12/18 03:47:27;;;;;;;18.10;11.02;;;-2.70;61.80;;;;;;5071178;28;20438;-74
2022/12/18 03:50:08;;;;;;;16.98;10.63;;;-2.70;60.50;;;;;;5071080;28;20410;-74
2022/12/18 03:52:52;;;;;;;15.90;10.48;;;-2.60;59.00;;;;;;5070784;28;20410;-74
2022/12/18 03:55:20;;;;;;;17.73;11.18;;;-2.70;59.40;;;;;;5071189;28;20387;-75
2022/12/18 03:57:47;;;;;;;18.38;10.77;;;-2.70;60.50;;;;;;5071218;28;20725;-75
2022/12/18 04:00:16;;;;;;;19.45;11.73;;;-2.80;60.50;;;;;;5071569;28;20753;-76
2022/12/18 04:02:47;;;;;;;17.80;10.80;;;-2.80;60.30;;;;;;5070419;28;20383;-75
2022/12/18 04:05:14;;;;;;;17.80;11.07;;;-2.70;60.40;;;;;;5071316;28;20860;-74
2022/12/18 04:07:40;;;;;;;18.73;10.82;;;-2.80;60.50;;;;;;5071591;28;20471;-74
2022/12/18 04:10:08;;;;;;;17.10;10.73;;;-2.90;61.80;;;;;;5054247;28;20448;-75
2022/12/18 04:12:33;;;;;;;16.10;10.90;;;-2.90;61.70;;;;;;5072234;28;20499;-75
2022/12/18 04:14:59;;;;;;;18.38;11.90;;;-2.90;62.50;;;;;;5073042;28;20416;-77
2022/12/18 04:17:24;;;;;;;17.87;10.87;;;-2.90;62.20;;;;;;5072355;28;20874;-76
2022/12/18 04:19:50;;;;;;;19.10;11.48;;;-2.90;63.10;;;;;;5071965;28;20376;-74
2022/12/18 04:22:16;;;;;;;20.02;10.98;;;-2.90;63.10;;;;;;5074045;28;20464;-74
2022/12/18 04:24:41;;;;;;;17.30;11.37;;;-2.90;63.00;;;;;;5073596;28;20458;-75
2022/12/18 04:27:07;;;;;;;18.47;10.70;;;-2.80;61.00;;;;;;5067092;28;20414;-74
2022/12/18 04:29:33;;;;;;;18.20;11.90;;;-2.90;61.30;;;;;;5087449;28;20376;-73
2022/12/18 04:31:58;;;;;;;15.47;10.97;;;-3.00;62.30;;;;;;5090459;28;20399;-73
2022/12/18 04:34:24;;;;;;;19.92;11.65;;;-3.00;62.30;;;;;;5091959;28;20456;-74
2022/12/18 04:36:49;;;;;;;19.77;11.23;;;-3.00;62.80;;;;;;5091290;28;20376;-73
2022/12/18 04:39:15;;;;;;;18.60;12.03;;;-2.90;62.60;;;;;;5069329;28;20871;-75
2022/12/18 04:41:41;;;;;;;18.37;11.20;;;-3.00;63.30;;;;;;5062325;28;20384;-75
2022/12/18 04:44:06;;;;;;;19.40;11.15;;;-2.90;63.20;;;;;;5074835;28;20389;-74
2022/12/18 04:46:32;;;;;;;17.90;10.95;;;-3.00;63.40;;;;;;5074757;28;20391;-75
2022/12/18 04:48:58;;;;;;;19.57;11.40;;;-2.90;63.90;;;;;;5075350;28;20427;-75
2022/12/18 04:51:23;;;;;;;16.38;10.35;;;-2.90;63.80;;;;;;5074334;28;20464;-75
2022/12/18 04:53:49;;;;;;;16.63;10.60;;;-3.00;63.00;;;;;;5076068;28;20392;-75
2022/12/18 04:56:15;;;;;;;19.07;11.57;;;-3.00;63.80;;;;;;5077870;28;20403;-74
2022/12/18 04:58:43;;;;;;;19.38;11.75;;;-3.00;63.80;;;;;;5081904;28;20379;-75
2022/12/18 05:01:09;;;;;;;15.90;11.02;;;-3.00;62.90;;;;;;5085370;28;20387;-76
2022/12/18 05:03:36;;;;;;;20.50;11.38;;;-3.10;64.30;;;;;;5086437;28;20388;-76
2022/12/18 05:06:02;;;;;;;18.38;11.40;;;-3.00;64.00;;;;;;5076391;28;20392;-75
2022/12/18 05:08:28;;;;;;;20.77;12.10;;;-3.00;64.00;;;;;;5073941;28;20888;-76
2022/12/18 05:11:00;;;;;;;17.23;11.60;;;-3.00;64.60;;;;;;5073435;28;20383;-75
2022/12/18 05:13:26;;;;;;;19.98;11.30;;;-3.00;65.20;;;;;;5075721;28;20394;-75
2022/12/18 05:15:52;;;;;;;16.95;11.68;;;-3.00;64.40;;;;;;5073469;28;20466;-75
2022/12/18 05:18:18;;;;;;;18.33;11.48;;;-3.00;64.10;;;;;;5073680;28;20380;-76
2022/12/18 05:20:43;;;;;;;18.50;11.87;;;-3.10;64.80;;;;;;5073561;28;20391;-76
2022/12/18 05:23:09;;;;;;;18.67;11.50;;;-3.10;65.50;;;;;;5073043;28;20392;-76
2022/12/18 05:25:34;;;;;;;17.77;11.52;;;-3.10;65.60;;;;;;5074166;28;20383;-76
2022/12/18 05:28:00;;;;;;;18.50;11.80;;;-3.10;66.60;;;;;;5075442;28;20380;-75
2022/12/18 05:30:25;;;;;;;18.33;10.67;;;-3.10;66.10;;;;;;5075270;28;20458;-75
2022/12/18 05:32:51;;;;;;;16.57;10.50;;;-3.10;64.90;;;;;;5054666;28;20537;-75
2022/12/18 05:35:16;;;;;;;16.67;10.57;;;-3.10;64.10;;;;;;5073943;28;20383;-75
2022/12/18 05:37:42;;;;;;;17.80;11.27;;;-3.10;64.10;;;;;;5073691;28;20384;-75
2022/12/18 05:40:08;;;;;;;16.37;10.70;;;-3.00;63.60;;;;;;5075072;28;20391;-75
2022/12/18 05:42:34;;;;;;;16.10;10.85;;;-3.10;63.60;;;;;;5054836;28;20391;-76
2022/12/18 05:44:59;;;;;;;16.70;10.80;;;-3.10;63.70;;;;;;5073284;28;20376;-75
2022/12/18 05:47:26;;;;;;;17.30;10.73;;;-3.00;63.20;;;;;;5055057;28;20404;-76
2022/12/18 05:49:51;;;;;;;17.25;10.75;;;-3.10;62.80;;;;;;5072509;28;20774;-75
2022/12/18 05:52:17;;;;;;;15.40;10.23;;;-3.20;63.40;;;;;;5054953;28;20410;-76
2022/12/18 05:54:42;;;;;;;16.00;10.33;;;-3.10;62.80;;;;;;5074501;28;20861;-75
2022/12/18 05:57:08;;;;;;;17.90;11.38;;;-3.10;61.90;;;;;;5055401;28;20953;-77
2022/12/18 05:59:34;;;;;;;17.70;11.05;;;-3.10;61.70;;;;;;5073439;28;20380;-74
2022/12/18 06:01:59;;;;;;;17.47;11.13;;;-3.20;61.90;;;;;;5072332;28;20384;-76
2022/12/18 06:04:28;;;;;;;17.50;10.40;;;-3.20;61.60;;;;;;5072959;28;20410;-76
2022/12/18 06:06:54;;;;;;;16.30;10.63;;;-3.30;62.00;;;;;;5054699;28;20423;-75
2022/12/18 06:09:19;;;;;;;18.83;11.40;;;-3.40;63.40;;;;;;5072848;28;20415;-75
2022/12/18 06:11:45;;;;;;;17.73;11.23;;;-3.30;64.50;;;;;;5054131;28;20411;-77
2022/12/18 06:14:10;;;;;;;17.13;11.30;;;-3.40;63.50;;;;;;5072651;28;20380;-76
2022/12/18 06:16:36;;;;;;;20.50;11.03;;;-3.40;63.00;;;;;;5073058;28;20407;-75
2022/12/18 06:19:03;;;;;;;17.83;11.10;;;-3.30;62.60;;;;;;5074451;28;20388;-75
2022/12/18 06:21:30;;;;;;;21.50;12.02;;;-3.40;62.10;;;;;;5074454;28;20384;-76
2022/12/18 06:23:56;;;;;;;16.52;10.70;;;-3.30;61.90;;;;;;5074203;28;20474;-76
2022/12/18 06:26:22;;;;;;;16.45;10.90;;;-3.30;61.60;;;;;;5075672;28;20819;-75
2022/12/18 06:28:47;;;;;;;19.80;12.30;;;-3.20;60.00;;;;;;5076949;28;21007;-74
2022/12/18 06:31:13;;;;;;;20.30;12.20;;;-3.20;59.60;;;;;;5074208;28;20787;-76
2022/12/18 06:33:39;;;;;;;21.13;12.80;;;-3.20;59.20;;;;;;5084845;28;20387;-74
2022/12/18 06:36:10;;;;;;;22.23;11.93;;;-3.10;59.20;;;;;;5075925;28;20447;-75
2022/12/18 06:38:37;;;;;;;18.30;11.68;;;-3.10;58.70;;;;;;5072469;28;20714;-74
2022/12/18 06:41:14;;;;;;;18.52;11.80;;;-3.20;58.40;;;;;;5071649;28;20422;-75
2022/12/18 06:43:39;;;;;;;19.33;12.20;;;-3.30;59.30;;;;;;5053837;28;20395;-74
2022/12/18 06:46:05;;;;;;;18.88;12.00;;;-3.50;60.30;;;;;;5071437;28;20860;-75
2022/12/18 06:48:31;;;;;;;20.92;12.77;;;-3.50;61.30;;;;;;5053776;28;20403;-74
2022/12/18 06:50:57;;;;;;;19.67;12.85;;;-3.50;60.80;;;;;;5070765;28;20840;-76
2022/12/18 06:53:22;;;;;;;23.23;13.38;;;-3.60;61.80;;;;;;5071659;28;20474;-76
2022/12/18 06:55:49;;;;;;;18.48;12.00;;;-3.60;62.70;;;;;;5071547;28;20735;-74
2022/12/18 06:58:15;;;;;;;23.23;13.48;;;-3.60;63.10;;;;;;5071604;28;20382;-75
2022/12/18 07:00:40;;;;;;;22.50;13.05;;;-3.60;63.70;;;;;;5071119;28;20376;-75
2022/12/18 07:03:06;;;;;;;20.40;12.03;;;-3.60;63.20;;;;;;5070382;28;20399;-75
2022/12/18 07:05:31;;;;;;;20.37;12.20;;;-3.50;62.40;;;;;;5071328;28;20390;-73
2022/12/18 07:07:58;;;;;;;18.17;11.63;;;-3.60;62.30;;;;;;5053173;28;20471;-75
2022/12/18 07:10:24;;;;;;;20.85;12.85;;;-3.50;62.30;;;;;;5053299;28;20402;-75
2022/12/18 07:12:49;;;;;;;18.80;11.37;;;-3.50;61.40;;;;;;5071257;28;21033;-75
2022/12/18 07:15:15;;;;;;;19.90;11.70;;;-3.50;61.50;;;;;;5071476;28;20406;-74
2022/12/18 07:17:40;;;;;;;24.70;12.85;;;-3.50;62.50;;;;;;5071372;28;20478;-75
2022/12/18 07:20:06;;;;;;;19.70;12.30;;;-3.60;63.00;;;;;;5071026;28;20419;-74
2022/12/18 07:22:32;;;;;;;21.17;12.57;;;-3.50;62.60;;;;;;5070486;28;20495;-74
2022/12/18 07:24:58;;;;;;;21.43;12.67;;;-3.50;62.60;;;;;;5070914;28;20455;-75
2022/12/18 07:27:24;;;;;;;20.95;11.82;;;-3.50;63.40;;;;;;5070854;28;20395;-75
2022/12/18 07:29:49;;;;;;;19.90;12.20;;;-3.30;62.40;;;;;;5070916;28;20925;-73
2022/12/18 07:32:15;;;;;;;21.67;12.00;;;-3.20;60.70;;;;;;5052395;28;20820;-75
2022/12/18 07:34:41;;;;;;;24.88;13.13;;;-3.20;59.20;;;;;;5070971;28;20384;-75
2022/12/18 07:37:06;;;;;;;20.67;13.90;;;-3.20;59.70;;;;;;5070644;28;20729;-73
2022/12/18 07:39:32;;;;;;;17.38;11.40;;;-3.20;59.90;;;;;;5052809;28;20394;-74
2022/12/18 07:44:41;;;;;;;21.30;12.88;;;-3.20;59.80;;;;;;5071454;28;20387;-75
2022/12/18 07:47:07;;;;;;;18.85;11.65;;;-3.20;61.40;;;;;;5070821;28;20399;-75
2022/12/18 07:49:32;;;;;;;20.13;12.47;;;-3.10;60.20;;;;;;5070993;28;20434;-74
2022/12/18 07:51:58;;;;;;;21.38;13.00;;;-3.10;59.20;;;;;;5070134;28;20410;-75
2022/12/18 07:54:24;;;;;;;19.48;12.35;;;-3.00;58.20;;;;;;5070714;28;20738;-75
2022/12/18 07:56:50;;;;;;;20.25;12.57;;;-2.90;56.60;;;;;;5071034;28;20745;-74
2022/12/18 07:59:16;;;;;;;19.85;12.32;;;-2.90;57.10;;;;;;5070754;28;20380;-75
2022/12/18 08:01:41;;;;;;;21.30;13.10;;;-2.90;56.70;;;;;;5052312;28;20384;-74
2022/12/18 08:04:07;;;;;;;19.30;12.10;;;-2.90;56.60;;;;;;5070989;28;20391;-74
2022/12/18 08:06:33;;;;;;;21.77;12.50;;;-2.90;56.00;;;;;;5070777;28;20379;-73
2022/12/18 08:08:58;;;;;;;20.33;11.93;;;-2.90;56.30;;;;;;5053284;28;20761;-75
2022/12/18 08:11:25;;;;;;;20.30;12.20;;;-2.80;56.20;;;;;;5071062;28;20844;-74
2022/12/18 08:13:52;;;;;;;19.70;12.10;;;-2.70;54.60;;;;;;5073579;28;20387;-76
2022/12/18 08:16:19;;;;;;;21.50;12.95;;;-2.60;55.40;;;;;;5075818;28;20423;-75
2022/12/18 08:18:45;;;;;;;23.15;12.60;;;-2.60;55.20;;;;;;5076118;28;20400;-74
2022/12/18 08:21:22;;;;;;;22.73;12.45;;;-2.40;55.20;;;;;;5075106;28;20448;-74
2022/12/18 08:23:49;;;;;;;19.40;12.40;;;-2.30;53.90;;;;;;5075595;28;20383;-75
2022/12/18 08:26:16;;;;;;;19.85;12.85;;;-2.30;52.60;;;;;;5058453;28;20826;-73
2022/12/18 08:28:42;;;;;;;19.92;12.23;;;-2.30;51.70;;;;;;5076247;28;20384;-75
2022/12/18 08:31:08;;;;;;;23.67;13.70;;;-2.30;52.30;;;;;;5057330;28;20403;-74
2022/12/18 08:33:35;;;;;;;21.10;12.57;;;-2.40;52.30;;;;;;5075321;28;20383;-75
2022/12/18 08:36:01;;;;;;;20.42;12.18;;;-2.30;51.90;;;;;;5075031;28;20720;-75
2022/12/18 08:38:27;;;;;;;21.35;12.68;;;-2.20;51.20;;;;;;5075358;28;20694;-74
2022/12/18 08:41:00;;;;;;;25.17;13.45;;;-2.10;51.80;;;;;;5075119;28;20468;-75
2022/12/18 08:46:11;;;;;;;19.98;12.77;;;-2.10;51.80;;;;;;5088087;22;20444;-71
2022/12/18 08:48:36;;;;;;;24.27;12.63;;;-2.00;51.30;;;;;;5077249;28;20387;-71
2022/12/18 08:51:02;;;;;;;20.63;12.10;;;-1.80;50.30;;;;;;5077014;28;20406;-72
2022/12/18 08:53:28;;;;;;;21.57;12.60;;;-1.70;49.40;;;;;;5077801;28;20380;-73
2022/12/18 08:55:53;;;;;;;22.67;12.47;;;-1.60;49.30;;;;;;5077387;28;20403;-72
2022/12/18 08:58:19;;;;;;;20.48;12.60;;;-1.50;47.20;;;;;;5073949;28;20395;-72
2022/12/18 09:00:45;;;;;;;19.17;12.00;;;-1.40;46.00;;;;;;5074948;28;20825;-73
2022/12/18 09:03:15;;;;;;;20.42;11.85;;;-0.90;45.20;;;;;;5074739;28;20454;-73
2022/12/18 09:05:41;;;;;;;20.00;11.90;;;-0.20;40.60;;;;;;5074321;28;20736;-72
2022/12/18 09:08:07;;;;;;;18.88;11.55;;;0.30;38.10;;;;;;5074051;28;20395;-72
2022/12/18 09:10:32;;;;;;;22.60;12.90;;;0.10;37.10;;;;;;5074425;28;20474;-72
2022/12/18 09:12:58;;;;;;;18.92;12.18;;;-0.20;38.30;;;;;;5073238;28;20410;-71
2022/12/18 09:15:24;;;;;;;21.97;12.20;;;-0.40;39.10;;;;;;5074588;28;20752;-72
2022/12/18 09:17:49;;;;;;;20.52;12.80;;;-0.60;40.10;;;;;;5073870;28;20375;-73
2022/12/18 09:20:16;;;;;;;19.10;12.00;;;-0.70;41.00;;;;;;5074037;28;20406;-73
2022/12/18 09:22:42;;;;;;;19.13;12.15;;;-0.80;41.00;;;;;;5072326;28;20511;-71
2022/12/18 09:25:08;;;;;;;21.27;12.40;;;-0.90;41.90;;;;;;5073665;28;20904;-72
2022/12/18 09:27:34;;;;;;;19.02;11.43;;;-0.80;41.60;;;;;;5074435;28;20398;-73
2022/12/18 09:30:00;;;;;;;18.90;11.80;;;-0.70;40.80;;;;;;5074418;28;20721;-72
2022/12/18 09:32:25;;;;;;;20.27;12.67;;;-0.60;40.70;;;;;;5081818;28;20418;-72
2022/12/18 09:34:51;;;;;;;19.15;12.27;;;-0.50;39.90;;;;;;5089478;28;20494;-74
2022/12/18 09:37:17;;;;;;;20.17;12.48;;;-0.40;40.20;;;;;;5076522;28;20384;-72
2022/12/18 09:39:42;;;;;;;19.67;11.90;;;-0.30;39.50;;;;;;5073457;28;20643;-72
2022/12/18 09:42:19;;;;;;;19.80;12.17;;;-0.10;38.60;;;;;;5071015;28;20392;-73
2022/12/18 09:44:52;;;;;;;20.35;12.57;;;0.00;38.00;;;;;;5073465;28;20380;-71
2022/12/18 09:47:28;;;;;;;19.80;12.77;;;0.10;37.10;;;;;;5071377;28;20407;-72
2022/12/18 09:49:58;;;;;;;22.27;13.00;;;0.20;37.40;;;;;;5073173;28;20485;-72
2022/12/18 09:52:33;;;;;;;21.75;12.93;;;0.20;37.00;;;;;;5073243;28;20406;-72
2022/12/18 09:55:29;;;;;;;20.92;12.30;;;0.30;37.40;;;;;;5073321;28;20759;-72
2022/12/18 09:58:21;;;;;;;20.23;12.70;;;0.40;36.30;;;;;;5072113;28;20860;-73
2022/12/18 10:00:47;;;;;;;20.70;11.77;;;0.40;35.90;;;;;;5061985;28;20400;-72
2022/12/18 10:03:14;;;;;;;20.27;12.25;;;0.50;36.00;;;;;;5056350;28;20815;-72
2022/12/18 10:06:20;;;;;;;20.50;12.57;;;0.50;35.00;;;;;;5076163;28;20386;-72
2022/12/18 10:09:05;;;;;;;21.23;12.43;;;0.60;35.00;;;;;;5071904;28;20383;-72
2022/12/18 10:11:53;;;;;;;23.57;12.70;;;0.60;34.60;;;;;;5061551;28;20485;-72
2022/12/18 10:14:34;;;;;;;24.10;13.65;;;0.70;35.10;;;;;;5051912;28;20882;-72
2022/12/18 10:17:12;;;;;;;20.77;12.70;;;0.80;34.10;;;;;;5072025;28;20482;-77
2022/12/18 10:19:49;;;;;;;24.97;13.67;;;0.90;33.90;;;;;;5072662;28;20427;-75
2022/12/18 10:22:34;;;;;;;23.73;13.90;;;0.90;34.00;;;;;;5069599;28;20733;-75
2022/12/18 10:25:03;;;;;;;22.57;12.40;;;1.10;33.90;;;;;;5071999;28;20799;-74
2022/12/18 10:27:30;;;;;;;23.17;13.18;;;1.20;32.90;;;;;;5069439;28;20411;-74
2022/12/18 10:29:56;;;;;;;19.42;12.40;;;1.20;32.20;;;;;;5073015;28;20383;-74
2022/12/18 10:32:28;;;;;;;24.92;14.10;;;1.30;32.40;;;;;;5071886;28;20403;-74
2022/12/18 10:34:57;;;;;;;20.25;12.73;;;1.40;32.30;;;;;;5071146;28;20434;-74
2022/12/18 10:37:25;;;;;;;21.10;12.55;;;1.50;31.60;;;;;;5071760;28;20390;-73
2022/12/18 10:40:14;;;;;;;20.67;13.00;;;1.60;31.90;;;;;;5071977;28;20483;-73
2022/12/18 10:42:41;;;;;;;20.13;12.85;;;1.60;31.20;;;;;;5069969;28;20910;-73
2022/12/18 10:45:14;;;;;;;19.67;12.68;;;1.80;31.10;;;;;;5077305;28;20554;-72
2022/12/18 10:47:46;;;;;;;24.27;12.90;;;1.90;30.80;;;;;;5073556;28;20869;-71
2022/12/18 10:50:46;;;;;;;21.30;13.10;;;2.10;29.90;;;;;;5074779;28;20410;-73
2022/12/18 10:53:19;;;;;;;25.75;13.20;;;2.10;29.50;;;;;;5064177;28;20485;-72
2022/12/18 10:55:46;;;;;;;27.10;13.07;;;2.10;30.20;;;;;;5076850;28;20519;-72
2022/12/18 10:58:28;;;;;;;20.25;11.80;;;2.20;29.20;;;;;;5075424;28;20399;-72
2022/12/18 11:01:09;;;;;;;20.67;12.70;;;2.30;29.30;;;;;;5072222;28;20422;-72
2022/12/18 11:03:36;;;;;;;23.30;12.43;;;2.30;29.30;;;;;;5071557;28;20400;-72
2022/12/18 11:06:04;;;;;;;23.33;12.63;;;2.30;28.30;;;;;;5074910;28;20399;-72
2022/12/18 11:08:30;;;;;;;19.52;12.05;;;2.30;28.00;;;;;;5072871;28;20392;-73
2022/12/18 11:10:56;;;;;;;23.52;12.30;;;2.40;28.10;;;;;;5067775;28;20396;-72
2022/12/18 11:13:24;;;;;;;23.17;11.73;;;2.50;28.00;;;;;;5067452;28;20423;-73
2022/12/18 11:15:51;;;;;;;24.25;12.95;;;2.50;28.10;;;;;;5069290;28;20379;-72
2022/12/18 11:18:22;;;;;;;18.52;11.23;;;2.60;28.50;;;;;;5070080;28;20748;-73
2022/12/18 11:20:57;;;;;;;21.13;12.40;;;2.60;26.70;;;;;;5069558;28;20903;-72
2022/12/18 11:23:23;;;;;;;22.27;12.50;;;2.70;26.80;;;;;;5069674;28;20717;-73
2022/12/18 11:25:58;;;;;;;21.98;11.40;;;2.70;27.50;;;;;;5069636;28;20379;-74
2022/12/18 11:28:48;;;;;;;23.30;11.80;;;2.70;26.60;;;;;;5067138;28;20491;-72
2022/12/18 11:31:28;;;;;;;22.27;12.30;;;2.90;26.80;;;;;;5067974;28;20399;-73
2022/12/18 11:34:17;;;;;;;20.60;12.05;;;3.00;26.60;;;;;;5070663;28;20390;-72
2022/12/18 11:36:45;;;;;;;20.65;12.00;;;3.10;25.80;;;;;;5070984;28;20376;-72
2022/12/18 11:39:34;;;;;;;32.95;12.70;;;3.00;26.10;;;;;;5072647;28;20384;-73
2022/12/18 11:42:11;;;;;;;23.03;12.10;;;3.10;26.30;;;;;;5071220;28;20399;-72
2022/12/18 11:44:46;;;;;;;24.77;12.30;;;3.10;26.00;;;;;;5071282;28;20392;-73
2022/12/18 11:47:51;;;;;;;25.20;12.57;;;3.10;25.50;;;;;;5009426;28;1798621;-74
2022/12/18 11:50:50;;;;;;;21.65;12.20;;;3.00;25.10;;;;;;5069701;28;20437;-73
2022/12/18 11:53:16;;;;;;;25.42;12.23;;;3.10;26.00;;;;;;5067808;28;20411;-74
2022/12/18 11:56:03;;;;;;;26.10;13.55;;;3.00;25.50;;;;;;5047673;28;20480;-74
2022/12/18 11:58:46;;;;;;;23.55;13.07;;;3.10;26.40;;;;;;5060553;28;20392;-73
2022/12/18 12:01:21;;;;;;;23.60;13.43;;;3.10;25.40;;;;;;5069363;28;20760;-74
2022/12/18 12:04:16;;;;;;;21.33;12.70;;;3.10;26.30;;;;;;5067604;28;20486;-73
2022/12/18 12:07:10;;;;;;;21.83;12.65;;;3.10;25.10;;;;;;5069052;28;20462;-73
2022/12/18 12:09:54;;;;;;;22.75;12.75;;;3.10;25.40;;;;;;5065450;28;20504;-73
2022/12/18 12:12:49;;;;;;;28.30;13.52;;;3.10;26.20;;;;;;5069978;28;20439;-74
2022/12/18 12:15:25;;;;;;;27.40;14.10;;;3.10;26.10;;;;;;5072086;28;20391;-74
2022/12/18 12:18:02;;;;;;;27.77;14.45;;;3.10;25.90;;;;;;5083517;28;20372;-74
2022/12/18 12:20:45;;;;;;;24.17;14.02;;;3.10;27.00;;;;;;5090174;28;20423;-73
2022/12/18 12:23:28;;;;;;;28.67;14.70;;;3.00;24.80;;;;;;5074460;28;20457;-73
2022/12/18 12:26:02;;;;;;;25.10;13.80;;;3.00;25.70;;;;;;5072373;28;20914;-73
2022/12/18 12:28:46;;;;;;;24.45;14.30;;;3.00;26.00;;;;;;5072183;28;20753;-74
2022/12/18 12:31:22;;;;;;;25.83;15.18;;;2.90;25.80;;;;;;5075097;28;20391;-73
2022/12/18 12:34:01;;;;;;;27.50;14.30;;;2.90;25.80;;;;;;5086039;28;20856;-74
2022/12/18 12:36:41;;;;;;;23.42;14.40;;;2.90;25.30;;;;;;5082919;28;20404;-74
2022/12/18 12:39:12;;;;;;;24.13;14.45;;;2.90;25.50;;;;;;5075435;28;20395;-74
2022/12/18 12:44:32;;;;;;;30.98;14.90;;;2.80;25.70;;;;;;5071084;28;20377;-73
2022/12/18 12:47:04;;;;;;;27.52;15.25;;;2.90;25.90;;;;;;5069973;28;20737;-73
2022/12/18 12:49:33;;;;;;;29.70;15.18;;;2.80;25.90;;;;;;5071245;28;20868;-74
2022/12/18 12:52:12;;;;;;;30.55;15.02;;;2.80;25.70;;;;;;5070665;28;20409;-73
2022/12/18 12:54:38;;;;;;;27.25;14.85;;;2.70;26.00;;;;;;5070839;28;20434;-73
2022/12/18 12:57:39;;;;;;;32.63;15.40;;;2.70;26.10;;;;;;5070911;28;20380;-74
2022/12/18 13:00:17;;;;;;;30.08;16.15;;;2.70;26.50;;;;;;5062767;28;20864;-74